sensor_id;sensor_type;location;lat;lon;timestamp;pressure;altitude;pressure_sealevel;temperature;humidity
77881;BME280;67077;50.298;18.996;2023-07-13T00:00:00;97635.77;;;19.56;81.95
77881;BME280;67077;50.298;18.996;2023-07-13T00:02:29;97638.65;;;19.57;82.03
77881;BME280;67077;50.298;18.996;2023-07-13T00:04:57;97634.22;;;19.56;82.75
77881;BME280;67077;50.298;18.996;2023-07-13T00:07:25;97634.50;;;19.55;82.54
77881;BME280;67077;50.298;18.996;2023-07-13T00:09:53;97642.66;;;19.56;82.41
77881;BME280;67077;50.298;18.996;2023-07-13T00:12:33;97647.08;;;19.59;82.37
77881;BME280;67077;50.298;18.996;2023-07-13T00:15:06;97655.69;;;19.62;82.16
77881;BME280;67077;50.298;18.996;2023-07-13T00:17:34;97661.78;;;19.61;82.16
77881;BME280;67077;50.298;18.996;2023-07-13T00:20:03;97664.46;;;19.59;81.87
77881;BME280;67077;50.298;18.996;2023-07-13T00:22:32;97668.43;;;19.57;81.65
77881;BME280;67077;50.298;18.996;2023-07-13T00:25:00;97668.72;;;19.55;81.75
77881;BME280;67077;50.298;18.996;2023-07-13T00:27:27;97662.47;;;19.53;81.14
77881;BME280;67077;50.298;18.996;2023-07-13T00:29:58;97662.45;;;19.49;80.78
77881;BME280;67077;50.298;18.996;2023-07-13T00:32:27;97658.23;;;19.48;80.88
77881;BME280;67077;50.298;18.996;2023-07-13T00:34:55;97654.42;;;19.44;80.95
77881;BME280;67077;50.298;18.996;2023-07-13T00:37:24;97650.46;;;19.40;80.84
77881;BME280;67077;50.298;18.996;2023-07-13T00:39:52;97650.40;;;19.40;80.76
77881;BME280;67077;50.298;18.996;2023-07-13T00:42:20;97649.95;;;19.41;81.25
77881;BME280;67077;50.298;18.996;2023-07-13T00:45:07;97644.86;;;19.39;81.58
77881;BME280;67077;50.298;18.996;2023-07-13T00:47:35;97642.21;;;19.37;81.31
77881;BME280;67077;50.298;18.996;2023-07-13T00:50:05;97639.59;;;19.35;81.51
77881;BME280;67077;50.298;18.996;2023-07-13T00:52:36;97637.10;;;19.32;81.22
77881;BME280;67077;50.298;18.996;2023-07-13T00:55:06;97631.62;;;19.32;81.03
77881;BME280;67077;50.298;18.996;2023-07-13T00:57:37;97628.27;;;19.32;81.11
77881;BME280;67077;50.298;18.996;2023-07-13T01:00:06;97619.85;;;19.31;81.35
77881;BME280;67077;50.298;18.996;2023-07-13T01:02:45;97613.98;;;19.28;81.36
77881;BME280;67077;50.298;18.996;2023-07-13T01:05:20;97606.31;;;19.28;81.61
77881;BME280;67077;50.298;18.996;2023-07-13T01:07:51;97607.84;;;19.30;81.41
77881;BME280;67077;50.298;18.996;2023-07-13T01:10:23;97615.83;;;19.34;81.52
77881;BME280;67077;50.298;18.996;2023-07-13T01:12:52;97615.11;;;19.33;82.09
77881;BME280;67077;50.298;18.996;2023-07-13T01:15:42;97605.55;;;19.30;82.42
77881;BME280;67077;50.298;18.996;2023-07-13T01:18:30;97602.52;;;19.29;82.62
77881;BME280;67077;50.298;18.996;2023-07-13T01:21:04;97603.31;;;19.26;82.77
77881;BME280;67077;50.298;18.996;2023-07-13T01:23:32;97604.66;;;19.28;82.98
77881;BME280;67077;50.298;18.996;2023-07-13T01:26:02;97608.83;;;19.31;83.06
77881;BME280;67077;50.298;18.996;2023-07-13T01:28:31;97616.68;;;19.35;82.87
77881;BME280;67077;50.298;18.996;2023-07-13T01:30:59;97617.84;;;19.35;83.11
77881;BME280;67077;50.298;18.996;2023-07-13T01:33:27;97611.11;;;19.34;83.30
77881;BME280;67077;50.298;18.996;2023-07-13T01:35:55;97623.98;;;19.35;83.21
77881;BME280;67077;50.298;18.996;2023-07-13T01:38:25;97630.85;;;19.32;83.59
77881;BME280;67077;50.298;18.996;2023-07-13T01:40:53;97627.75;;;19.31;83.71
77881;BME280;67077;50.298;18.996;2023-07-13T01:43:21;97622.77;;;19.26;83.97
77881;BME280;67077;50.298;18.996;2023-07-13T01:45:50;97611.52;;;19.22;83.76
77881;BME280;67077;50.298;18.996;2023-07-13T01:48:18;97610.16;;;19.15;83.57
77881;BME280;67077;50.298;18.996;2023-07-13T01:50:47;97617.19;;;19.11;83.32
77881;BME280;67077;50.298;18.996;2023-07-13T01:53:15;97629.20;;;19.10;83.55
77881;BME280;67077;50.298;18.996;2023-07-13T01:55:44;97634.95;;;19.09;83.30
77881;BME280;67077;50.298;18.996;2023-07-13T01:58:11;97632.91;;;19.05;83.47
77881;BME280;67077;50.298;18.996;2023-07-13T02:00:39;97627.14;;;19.02;83.84
77881;BME280;67077;50.298;18.996;2023-07-13T02:03:08;97606.94;;;19.00;83.84
77881;BME280;67077;50.298;18.996;2023-07-13T02:05:36;97591.98;;;18.98;83.94
77881;BME280;67077;50.298;18.996;2023-07-13T02:08:04;97589.35;;;18.97;84.12
77881;BME280;67077;50.298;18.996;2023-07-13T02:10:32;97588.73;;;18.98;84.35
77881;BME280;67077;50.298;18.996;2023-07-13T02:13:00;97586.11;;;18.98;84.43
77881;BME280;67077;50.298;18.996;2023-07-13T02:15:28;97582.02;;;18.95;84.62
77881;BME280;67077;50.298;18.996;2023-07-13T02:17:56;97581.23;;;18.85;84.78
77881;BME280;67077;50.298;18.996;2023-07-13T02:20:25;97571.12;;;18.81;84.93
77881;BME280;67077;50.298;18.996;2023-07-13T02:22:54;97550.34;;;18.78;85.29
77881;BME280;67077;50.298;18.996;2023-07-13T02:25:22;97540.70;;;18.72;85.83
77881;BME280;67077;50.298;18.996;2023-07-13T02:27:50;97542.30;;;18.69;86.33
77881;BME280;67077;50.298;18.996;2023-07-13T02:30:18;97544.39;;;18.66;86.65
77881;BME280;67077;50.298;18.996;2023-07-13T02:32:46;97553.88;;;18.64;86.85
77881;BME280;67077;50.298;18.996;2023-07-13T02:35:14;97537.40;;;18.62;86.98
77881;BME280;67077;50.298;18.996;2023-07-13T02:37:42;97538.59;;;18.57;87.18
77881;BME280;67077;50.298;18.996;2023-07-13T02:40:10;97536.79;;;18.53;86.88
77881;BME280;67077;50.298;18.996;2023-07-13T02:42:39;97536.25;;;18.50;86.60
77881;BME280;67077;50.298;18.996;2023-07-13T02:45:08;97540.92;;;18.47;86.55
77881;BME280;67077;50.298;18.996;2023-07-13T02:47:36;97537.36;;;18.48;86.25
77881;BME280;67077;50.298;18.996;2023-07-13T02:50:05;97532.86;;;18.50;86.20
77881;BME280;67077;50.298;18.996;2023-07-13T02:52:33;97539.92;;;18.55;86.09
77881;BME280;67077;50.298;18.996;2023-07-13T02:55:02;97539.95;;;18.57;85.92
77881;BME280;67077;50.298;18.996;2023-07-13T02:57:30;97530.02;;;18.61;86.09
77881;BME280;67077;50.298;18.996;2023-07-13T03:00:02;97527.97;;;18.67;85.83
77881;BME280;67077;50.298;18.996;2023-07-13T03:02:34;97529.65;;;18.68;85.78
77881;BME280;67077;50.298;18.996;2023-07-13T03:05:02;97537.16;;;18.66;85.80
77881;BME280;67077;50.298;18.996;2023-07-13T03:07:30;97544.34;;;18.63;85.64
77881;BME280;67077;50.298;18.996;2023-07-13T03:09:59;97551.48;;;18.59;85.81
77881;BME280;67077;50.298;18.996;2023-07-13T03:12:27;97574.34;;;18.56;85.75
77881;BME280;67077;50.298;18.996;2023-07-13T03:14:54;97595.18;;;18.58;85.83
77881;BME280;67077;50.298;18.996;2023-07-13T03:17:22;97604.36;;;18.59;85.81
77881;BME280;67077;50.298;18.996;2023-07-13T03:19:50;97621.71;;;18.63;85.85
77881;BME280;67077;50.298;18.996;2023-07-13T03:22:19;97632.38;;;18.66;85.90
77881;BME280;67077;50.298;18.996;2023-07-13T03:24:47;97640.71;;;18.64;85.93
77881;BME280;67077;50.298;18.996;2023-07-13T03:27:17;97648.75;;;18.62;86.06
77881;BME280;67077;50.298;18.996;2023-07-13T03:29:45;97655.11;;;18.60;85.86
77881;BME280;67077;50.298;18.996;2023-07-13T03:32:13;97653.15;;;18.60;85.73
77881;BME280;67077;50.298;18.996;2023-07-13T03:34:41;97656.69;;;18.61;85.81
77881;BME280;67077;50.298;18.996;2023-07-13T03:37:09;97646.29;;;18.64;85.62
77881;BME280;67077;50.298;18.996;2023-07-13T03:39:37;97640.30;;;18.69;85.53
77881;BME280;67077;50.298;18.996;2023-07-13T03:42:05;97635.44;;;18.72;85.42
77881;BME280;67077;50.298;18.996;2023-07-13T03:44:33;97630.75;;;18.76;85.16
77881;BME280;67077;50.298;18.996;2023-07-13T03:47:01;97629.87;;;18.85;85.12
77881;BME280;67077;50.298;18.996;2023-07-13T03:49:29;97634.23;;;18.94;84.74
77881;BME280;67077;50.298;18.996;2023-07-13T03:51:57;97637.38;;;19.02;84.79
77881;BME280;67077;50.298;18.996;2023-07-13T03:54:25;97636.77;;;19.09;84.60
77881;BME280;67077;50.298;18.996;2023-07-13T03:56:53;97640.94;;;19.18;84.47
77881;BME280;67077;50.298;18.996;2023-07-13T03:59:21;97642.29;;;19.26;84.30
77881;BME280;67077;50.298;18.996;2023-07-13T04:01:50;97646.55;;;19.35;83.91
77881;BME280;67077;50.298;18.996;2023-07-13T04:04:18;97645.62;;;19.48;83.39
77881;BME280;67077;50.298;18.996;2023-07-13T04:06:46;97645.87;;;19.60;82.95
77881;BME280;67077;50.298;18.996;2023-07-13T04:09:14;97649.06;;;19.77;82.36
77881;BME280;67077;50.298;18.996;2023-07-13T04:11:42;97650.14;;;19.89;81.69
77881;BME280;67077;50.298;18.996;2023-07-13T04:14:10;97658.27;;;19.96;81.36
77881;BME280;67077;50.298;18.996;2023-07-13T04:16:38;97664.61;;;20.07;80.96
77881;BME280;67077;50.298;18.996;2023-07-13T04:19:08;97663.80;;;20.16;80.65
77881;BME280;67077;50.298;18.996;2023-07-13T04:21:37;97661.96;;;20.24;80.68
77881;BME280;67077;50.298;18.996;2023-07-13T04:24:05;97658.52;;;20.32;80.81
77881;BME280;67077;50.298;18.996;2023-07-13T04:26:34;97654.98;;;20.39;80.66
77881;BME280;67077;50.298;18.996;2023-07-13T04:29:04;97661.12;;;20.42;80.67
77881;BME280;67077;50.298;18.996;2023-07-13T04:31:33;97664.35;;;20.43;80.41
77881;BME280;67077;50.298;18.996;2023-07-13T04:34:01;97662.94;;;20.40;80.13
77881;BME280;67077;50.298;18.996;2023-07-13T04:36:30;97656.14;;;20.45;79.86
77881;BME280;67077;50.298;18.996;2023-07-13T04:38:59;97644.98;;;20.54;79.72
77881;BME280;67077;50.298;18.996;2023-07-13T04:41:26;97638.55;;;20.63;79.23
77881;BME280;67077;50.298;18.996;2023-07-13T04:43:56;97637.57;;;20.66;78.77
77881;BME280;67077;50.298;18.996;2023-07-13T04:46:23;97631.01;;;20.69;78.43
77881;BME280;67077;50.298;18.996;2023-07-13T04:48:52;97630.82;;;20.75;78.53
77881;BME280;67077;50.298;18.996;2023-07-13T04:51:21;97632.11;;;20.77;78.42
77881;BME280;67077;50.298;18.996;2023-07-13T04:53:49;97633.32;;;20.80;78.36
77881;BME280;67077;50.298;18.996;2023-07-13T04:56:17;97637.13;;;20.85;78.06
77881;BME280;67077;50.298;18.996;2023-07-13T04:58:45;97635.75;;;20.91;77.86
77881;BME280;67077;50.298;18.996;2023-07-13T05:01:13;97632.11;;;21.07;77.40
77881;BME280;67077;50.298;18.996;2023-07-13T05:03:42;97626.77;;;21.18;77.20
77881;BME280;67077;50.298;18.996;2023-07-13T05:06:10;97619.41;;;21.30;76.65
77881;BME280;67077;50.298;18.996;2023-07-13T05:08:39;97618.30;;;21.43;75.83
77881;BME280;67077;50.298;18.996;2023-07-13T05:11:07;97617.94;;;21.59;75.91
77881;BME280;67077;50.298;18.996;2023-07-13T05:13:35;97620.63;;;21.74;75.73
77881;BME280;67077;50.298;18.996;2023-07-13T05:16:05;97623.06;;;21.97;75.38
77881;BME280;67077;50.298;18.996;2023-07-13T05:18:36;97622.23;;;22.16;74.84
77881;BME280;67077;50.298;18.996;2023-07-13T05:21:08;97625.92;;;22.33;74.45
77881;BME280;67077;50.298;18.996;2023-07-13T05:23:37;97629.52;;;22.46;73.89
77881;BME280;67077;50.298;18.996;2023-07-13T05:26:05;97631.31;;;22.52;73.11
77881;BME280;67077;50.298;18.996;2023-07-13T05:28:33;97630.55;;;22.67;72.68
77881;BME280;67077;50.298;18.996;2023-07-13T05:31:01;97631.84;;;22.92;72.51
77881;BME280;67077;50.298;18.996;2023-07-13T05:33:29;97626.86;;;23.19;71.80
77881;BME280;67077;50.298;18.996;2023-07-13T05:35:57;97628.61;;;23.40;71.27
77881;BME280;67077;50.298;18.996;2023-07-13T05:38:26;97622.79;;;23.53;70.86
77881;BME280;67077;50.298;18.996;2023-07-13T05:40:55;97619.41;;;23.65;70.05
77881;BME280;67077;50.298;18.996;2023-07-13T05:43:24;97613.73;;;23.61;69.35
77881;BME280;67077;50.298;18.996;2023-07-13T05:45:54;97611.54;;;23.54;68.98
77881;BME280;67077;50.298;18.996;2023-07-13T05:48:23;97616.95;;;23.52;68.67
77881;BME280;67077;50.298;18.996;2023-07-13T05:50:51;97616.67;;;23.54;68.57
77881;BME280;67077;50.298;18.996;2023-07-13T05:53:19;97615.59;;;23.63;68.49
77881;BME280;67077;50.298;18.996;2023-07-13T05:55:48;97609.33;;;23.75;68.07
77881;BME280;67077;50.298;18.996;2023-07-13T05:58:17;97608.63;;;23.74;67.26
77881;BME280;67077;50.298;18.996;2023-07-13T06:00:46;97603.72;;;23.64;67.02
77881;BME280;67077;50.298;18.996;2023-07-13T06:03:15;97603.80;;;23.51;67.37
77881;BME280;67077;50.298;18.996;2023-07-13T06:05:43;97601.85;;;23.40;67.84
77881;BME280;67077;50.298;18.996;2023-07-13T06:08:11;97601.39;;;23.29;68.20
77881;BME280;67077;50.298;18.996;2023-07-13T06:10:39;97607.55;;;23.21;68.32
77881;BME280;67077;50.298;18.996;2023-07-13T06:13:07;97604.59;;;23.19;68.19
77881;BME280;67077;50.298;18.996;2023-07-13T06:15:36;97603.50;;;23.20;68.40
77881;BME280;67077;50.298;18.996;2023-07-13T06:18:04;97604.63;;;23.21;68.54
77881;BME280;67077;50.298;18.996;2023-07-13T06:20:34;97602.23;;;23.16;68.22
77881;BME280;67077;50.298;18.996;2023-07-13T06:23:02;97597.85;;;23.12;67.75
77881;BME280;67077;50.298;18.996;2023-07-13T06:25:30;97600.39;;;23.17;67.87
77881;BME280;67077;50.298;18.996;2023-07-13T06:27:58;97599.06;;;23.23;67.67
77881;BME280;67077;50.298;18.996;2023-07-13T06:30:26;97592.86;;;23.30;67.76
77881;BME280;67077;50.298;18.996;2023-07-13T06:32:54;97592.70;;;23.40;67.46
77881;BME280;67077;50.298;18.996;2023-07-13T06:35:22;97593.26;;;23.55;66.94
77881;BME280;67077;50.298;18.996;2023-07-13T06:37:56;97597.71;;;23.69;66.93
77881;BME280;67077;50.298;18.996;2023-07-13T06:40:24;97601.05;;;23.81;66.73
77881;BME280;67077;50.298;18.996;2023-07-13T06:42:52;97605.81;;;23.86;66.68
77881;BME280;67077;50.298;18.996;2023-07-13T06:45:20;97606.44;;;23.91;66.17
77881;BME280;67077;50.298;18.996;2023-07-13T06:47:48;97606.82;;;23.97;66.14
77881;BME280;67077;50.298;18.996;2023-07-13T06:50:17;97606.55;;;24.10;65.92
77881;BME280;67077;50.298;18.996;2023-07-13T06:52:45;97606.81;;;24.19;65.87
77881;BME280;67077;50.298;18.996;2023-07-13T06:55:13;97610.73;;;24.33;65.16
77881;BME280;67077;50.298;18.996;2023-07-13T06:57:41;97611.34;;;24.45;64.50
77881;BME280;67077;50.298;18.996;2023-07-13T07:00:10;97608.52;;;24.58;63.91
77881;BME280;67077;50.298;18.996;2023-07-13T07:02:38;97610.89;;;24.75;62.68
77881;BME280;67077;50.298;18.996;2023-07-13T07:05:06;97616.58;;;24.83;62.11
77881;BME280;67077;50.298;18.996;2023-07-13T07:07:34;97623.40;;;24.92;62.23
77881;BME280;67077;50.298;18.996;2023-07-13T07:10:02;97630.70;;;25.00;62.02
77881;BME280;67077;50.298;18.996;2023-07-13T07:12:31;97633.77;;;24.99;61.90
77881;BME280;67077;50.298;18.996;2023-07-13T07:14:59;97640.23;;;24.90;62.38
77881;BME280;67077;50.298;18.996;2023-07-13T07:17:27;97647.88;;;24.80;62.21
77881;BME280;67077;50.298;18.996;2023-07-13T07:19:55;97653.17;;;24.72;61.86
77881;BME280;67077;50.298;18.996;2023-07-13T07:22:23;97651.94;;;24.65;61.42
77881;BME280;67077;50.298;18.996;2023-07-13T07:24:54;97655.20;;;24.53;60.48
77881;BME280;67077;50.298;18.996;2023-07-13T07:27:23;97655.94;;;24.44;60.71
77881;BME280;67077;50.298;18.996;2023-07-13T07:29:51;97660.55;;;24.40;60.72
77881;BME280;67077;50.298;18.996;2023-07-13T07:32:20;97664.30;;;24.32;60.86
77881;BME280;67077;50.298;18.996;2023-07-13T07:34:48;97663.29;;;24.24;62.13
77881;BME280;67077;50.298;18.996;2023-07-13T07:37:16;97662.02;;;24.20;62.59
77881;BME280;67077;50.298;18.996;2023-07-13T07:39:44;97661.21;;;24.15;63.33
77881;BME280;67077;50.298;18.996;2023-07-13T07:42:12;97670.09;;;24.07;63.90
77881;BME280;67077;50.298;18.996;2023-07-13T07:44:40;97677.06;;;24.05;64.84
77881;BME280;67077;50.298;18.996;2023-07-13T07:47:09;97678.70;;;23.99;65.26
77881;BME280;67077;50.298;18.996;2023-07-13T07:49:37;97678.09;;;23.91;65.42
77881;BME280;67077;50.298;18.996;2023-07-13T07:52:06;97676.98;;;23.87;66.20
77881;BME280;67077;50.298;18.996;2023-07-13T07:54:34;97674.94;;;23.82;66.47
77881;BME280;67077;50.298;18.996;2023-07-13T07:57:02;97673.86;;;23.83;67.02
77881;BME280;67077;50.298;18.996;2023-07-13T07:59:30;97670.90;;;23.87;66.89
77881;BME280;67077;50.298;18.996;2023-07-13T08:01:58;97670.45;;;23.92;66.51
77881;BME280;67077;50.298;18.996;2023-07-13T08:04:27;97667.83;;;23.99;66.36
77881;BME280;67077;50.298;18.996;2023-07-13T08:06:55;97669.09;;;24.01;64.95
77881;BME280;67077;50.298;18.996;2023-07-13T08:09:26;97662.09;;;23.95;64.12
77881;BME280;67077;50.298;18.996;2023-07-13T08:11:54;97653.79;;;23.87;64.01
77881;BME280;67077;50.298;18.996;2023-07-13T08:14:23;97650.33;;;23.83;64.23
77881;BME280;67077;50.298;18.996;2023-07-13T08:16:51;97651.59;;;23.91;63.90
77881;BME280;67077;50.298;18.996;2023-07-13T08:19:19;97651.91;;;23.99;63.14
77881;BME280;67077;50.298;18.996;2023-07-13T08:21:47;97648.58;;;24.04;61.38
77881;BME280;67077;50.298;18.996;2023-07-13T08:24:16;97644.00;;;24.06;60.74
77881;BME280;67077;50.298;18.996;2023-07-13T08:26:47;97636.21;;;24.08;60.26
77881;BME280;67077;50.298;18.996;2023-07-13T08:29:15;97634.64;;;24.15;60.57
77881;BME280;67077;50.298;18.996;2023-07-13T08:31:43;97633.70;;;24.23;60.03
77881;BME280;67077;50.298;18.996;2023-07-13T08:34:14;97633.48;;;24.29;59.87
77881;BME280;67077;50.298;18.996;2023-07-13T08:36:43;97637.35;;;24.42;60.22
77881;BME280;67077;50.298;18.996;2023-07-13T08:39:11;97637.42;;;24.57;59.98
77881;BME280;67077;50.298;18.996;2023-07-13T08:41:39;97641.70;;;24.65;60.45
77881;BME280;67077;50.298;18.996;2023-07-13T08:44:19;97646.38;;;24.70;61.11
77881;BME280;67077;50.298;18.996;2023-07-13T08:46:52;97647.19;;;24.70;61.66
77881;BME280;67077;50.298;18.996;2023-07-13T08:49:22;97649.16;;;24.70;61.51
77881;BME280;67077;50.298;18.996;2023-07-13T08:52:10;97648.06;;;24.69;61.48
77881;BME280;67077;50.298;18.996;2023-07-13T08:54:48;97650.02;;;24.70;60.67
77881;BME280;67077;50.298;18.996;2023-07-13T08:57:20;97652.55;;;24.72;59.62
77881;BME280;67077;50.298;18.996;2023-07-13T08:59:50;97649.98;;;24.69;59.35
77881;BME280;67077;50.298;18.996;2023-07-13T09:02:42;97650.41;;;24.68;59.65
77881;BME280;67077;50.298;18.996;2023-07-13T09:05:32;97651.77;;;24.70;60.28
77881;BME280;67077;50.298;18.996;2023-07-13T09:10:52;97657.86;;;24.77;59.86
77881;BME280;67077;50.298;18.996;2023-07-13T09:13:37;97658.44;;;24.78;59.25
77881;BME280;67077;50.298;18.996;2023-07-13T09:16:07;97655.67;;;24.76;59.27
77881;BME280;67077;50.298;18.996;2023-07-13T09:18:43;97660.19;;;24.73;59.74
77881;BME280;67077;50.298;18.996;2023-07-13T09:23:47;97662.04;;;24.58;61.04
77881;BME280;67077;50.298;18.996;2023-07-13T09:26:21;97663.73;;;24.41;61.91
77881;BME280;67077;50.298;18.996;2023-07-13T09:28:58;97674.36;;;24.02;62.43
77881;BME280;67077;50.298;18.996;2023-07-13T09:31:44;97680.86;;;23.52;62.91
77881;BME280;67077;50.298;18.996;2023-07-13T09:34:16;97686.92;;;22.99;63.65
77881;BME280;67077;50.298;18.996;2023-07-13T09:36:45;97690.86;;;22.58;64.34
77881;BME280;67077;50.298;18.996;2023-07-13T09:39:35;97689.83;;;22.25;65.32
77881;BME280;67077;50.298;18.996;2023-07-13T09:42:18;97694.75;;;21.97;66.32
77881;BME280;67077;50.298;18.996;2023-07-13T09:44:55;97712.84;;;21.75;66.77
77881;BME280;67077;50.298;18.996;2023-07-13T09:47:28;97707.35;;;21.57;67.05
77881;BME280;67077;50.298;18.996;2023-07-13T09:50:06;97725.77;;;21.40;67.02
77881;BME280;67077;50.298;18.996;2023-07-13T09:52:46;97728.29;;;21.15;66.82
77881;BME280;67077;50.298;18.996;2023-07-13T09:55:34;97735.59;;;20.92;67.43
77881;BME280;67077;50.298;18.996;2023-07-13T10:03:53;97774.91;;;19.95;70.04
77881;BME280;67077;50.298;18.996;2023-07-13T10:06:22;97796.32;;;19.45;72.11
77881;BME280;67077;50.298;18.996;2023-07-13T10:09:13;97801.57;;;18.86;73.74
77881;BME280;67077;50.298;18.996;2023-07-13T10:11:50;97809.88;;;18.30;76.00
77881;BME280;67077;50.298;18.996;2023-07-13T10:14:23;97811.54;;;17.83;78.43
77881;BME280;67077;50.298;18.996;2023-07-13T10:17:01;97803.31;;;17.48;80.07
77881;BME280;67077;50.298;18.996;2023-07-13T10:19:32;97799.90;;;17.16;81.15
77881;BME280;67077;50.298;18.996;2023-07-13T10:22:14;97812.07;;;16.95;82.09
77881;BME280;67077;50.298;18.996;2023-07-13T10:24:47;97809.62;;;16.75;83.34
77881;BME280;67077;50.298;18.996;2023-07-13T10:27:20;97811.31;;;16.59;84.19
77881;BME280;67077;50.298;18.996;2023-07-13T10:32:29;97829.73;;;16.36;85.65
77881;BME280;67077;50.298;18.996;2023-07-13T10:34:59;97822.84;;;16.26;86.47
77881;BME280;67077;50.298;18.996;2023-07-13T10:37:43;97822.16;;;16.20;87.02
77881;BME280;67077;50.298;18.996;2023-07-13T10:40:16;97813.24;;;16.12;88.03
77881;BME280;67077;50.298;18.996;2023-07-13T10:42:48;97811.08;;;16.08;88.71
77881;BME280;67077;50.298;18.996;2023-07-13T10:45:22;97815.19;;;16.05;88.92
77881;BME280;67077;50.298;18.996;2023-07-13T10:47:52;97806.94;;;16.01;89.41
77881;BME280;67077;50.298;18.996;2023-07-13T10:50:25;97802.52;;;16.01;89.70
77881;BME280;67077;50.298;18.996;2023-07-13T10:53:01;97799.95;;;16.00;90.46
77881;BME280;67077;50.298;18.996;2023-07-13T10:58:38;97806.21;;;15.99;90.90
77881;BME280;67077;50.298;18.996;2023-07-13T11:01:15;97810.97;;;16.01;90.96
77881;BME280;67077;50.298;18.996;2023-07-13T11:06:33;97815.06;;;16.02;91.13
77881;BME280;67077;50.298;18.996;2023-07-13T11:12:01;97823.55;;;16.07;91.30
77881;BME280;67077;50.298;18.996;2023-07-13T11:14:35;97825.83;;;16.10;91.40
77881;BME280;67077;50.298;18.996;2023-07-13T11:22:46;97837.72;;;16.20;91.13
77881;BME280;67077;50.298;18.996;2023-07-13T11:25:32;97835.62;;;16.23;90.97
77881;BME280;67077;50.298;18.996;2023-07-13T11:30:59;97835.85;;;16.30;90.86
77881;BME280;67077;50.298;18.996;2023-07-13T11:36:16;97835.33;;;16.37;90.94
77881;BME280;67077;50.298;18.996;2023-07-13T11:39:12;97835.91;;;16.40;90.64
77881;BME280;67077;50.298;18.996;2023-07-13T11:41:45;97828.74;;;16.46;90.62
77881;BME280;67077;50.298;18.996;2023-07-13T11:44:19;97822.33;;;16.48;90.55
77881;BME280;67077;50.298;18.996;2023-07-13T11:46:53;97822.94;;;16.52;90.73
77881;BME280;67077;50.298;18.996;2023-07-13T11:49:26;97823.38;;;16.58;90.80
77881;BME280;67077;50.298;18.996;2023-07-13T11:51:55;97832.96;;;16.70;90.78
77881;BME280;67077;50.298;18.996;2023-07-13T11:57:07;97840.83;;;16.92;89.99
77881;BME280;67077;50.298;18.996;2023-07-13T11:59:41;97840.30;;;17.07;89.93
77881;BME280;67077;50.298;18.996;2023-07-13T12:02:17;97843.08;;;17.19;89.37
77881;BME280;67077;50.298;18.996;2023-07-13T12:04:51;97843.83;;;17.32;89.01
77881;BME280;67077;50.298;18.996;2023-07-13T12:07:19;97845.68;;;17.49;89.49
77881;BME280;67077;50.298;18.996;2023-07-13T12:09:47;97840.48;;;17.64;89.14
77881;BME280;67077;50.298;18.996;2023-07-13T12:12:21;97841.17;;;17.75;87.86
77881;BME280;67077;50.298;18.996;2023-07-13T12:14:53;97845.98;;;17.85;87.56
77881;BME280;67077;50.298;18.996;2023-07-13T12:17:24;97844.86;;;18.01;87.86
77881;BME280;67077;50.298;18.996;2023-07-13T12:19:53;97846.78;;;18.17;87.58
77881;BME280;67077;50.298;18.996;2023-07-13T12:22:21;97845.89;;;18.32;86.86
77881;BME280;67077;50.298;18.996;2023-07-13T12:24:51;97849.33;;;18.48;86.54
77881;BME280;67077;50.298;18.996;2023-07-13T12:27:25;97850.47;;;18.70;87.31
77881;BME280;67077;50.298;18.996;2023-07-13T12:32:27;97860.30;;;19.00;86.12
77881;BME280;67077;50.298;18.996;2023-07-13T12:35:13;97855.52;;;19.20;86.07
77881;BME280;67077;50.298;18.996;2023-07-13T12:37:43;97859.39;;;19.39;84.98
77881;BME280;67077;50.298;18.996;2023-07-13T12:40:19;97857.11;;;19.56;84.51
77881;BME280;67077;50.298;18.996;2023-07-13T12:42:51;97859.98;;;19.73;83.49
77881;BME280;67077;50.298;18.996;2023-07-13T12:45:25;97861.33;;;19.81;83.21
77881;BME280;67077;50.298;18.996;2023-07-13T12:47:58;97863.93;;;19.83;82.26
77881;BME280;67077;50.298;18.996;2023-07-13T12:50:34;97862.31;;;19.80;81.35
77881;BME280;67077;50.298;18.996;2023-07-13T12:53:05;97866.08;;;19.75;80.50
77881;BME280;67077;50.298;18.996;2023-07-13T12:55:45;97866.42;;;19.69;80.42
77881;BME280;67077;50.298;18.996;2023-07-13T12:58:31;97864.02;;;19.69;80.03
77881;BME280;67077;50.298;18.996;2023-07-13T13:01:01;97867.98;;;19.76;80.48
77881;BME280;67077;50.298;18.996;2023-07-13T13:03:34;97868.64;;;19.77;80.01
77881;BME280;67077;50.298;18.996;2023-07-13T13:08:42;97867.03;;;19.86;79.40
77881;BME280;67077;50.298;18.996;2023-07-13T13:11:11;97869.15;;;19.90;77.75
77881;BME280;67077;50.298;18.996;2023-07-13T13:13:39;97870.68;;;19.93;77.29
77881;BME280;67077;50.298;18.996;2023-07-13T13:16:11;97869.77;;;20.02;77.68
77881;BME280;67077;50.298;18.996;2023-07-13T13:18:40;97869.95;;;20.11;76.85
77881;BME280;67077;50.298;18.996;2023-07-13T13:21:09;97870.80;;;20.20;76.75
77881;BME280;67077;50.298;18.996;2023-07-13T13:23:38;97877.09;;;20.38;77.23
77881;BME280;67077;50.298;18.996;2023-07-13T13:26:14;97882.98;;;20.57;76.79
77881;BME280;67077;50.298;18.996;2023-07-13T13:28:44;97886.13;;;20.74;75.52
77881;BME280;67077;50.298;18.996;2023-07-13T13:31:12;97882.96;;;20.80;74.48
77881;BME280;67077;50.298;18.996;2023-07-13T13:33:43;97876.80;;;20.89;73.27
77881;BME280;67077;50.298;18.996;2023-07-13T13:36:19;97877.15;;;21.02;72.88
77881;BME280;67077;50.298;18.996;2023-07-13T13:38:49;97876.19;;;21.08;71.42
77881;BME280;67077;50.298;18.996;2023-07-13T13:41:17;97875.80;;;21.14;71.61
77881;BME280;67077;50.298;18.996;2023-07-13T13:43:46;97872.41;;;21.21;70.76
77881;BME280;67077;50.298;18.996;2023-07-13T13:46:21;97879.56;;;21.22;70.57
77881;BME280;67077;50.298;18.996;2023-07-13T13:48:50;97879.83;;;21.12;70.48